Time;durP1;ratioP1;P1;durP2;ratioP2;P2;SDS_P1;SDS_P2;PMS_P1;PMS_P2;Temp;Humidity;BMP_temperature;BMP_pressure;BME280_temperature;BME280_humidity;BME280_pressure;Samples;Min_cycle;Max_cycle;Signal;HPM_P1;HPM_P2
2022/07/23 00:00:15;;;;;;;2.45;2.05;;;18.80;99.90;;;;;;4996555;28;20656;-73
2022/07/23 00:02:41;;;;;;;5.07;1.80;;;18.80;99.90;;;;;;5011681;28;20025;-73
2022/07/23 00:05:07;;;;;;;2.97;1.67;;;18.80;99.90;;;;;;5017813;28;20033;-74
2022/07/23 00:07:32;;;;;;;2.92;1.60;;;18.90;99.90;;;;;;5015495;28;20392;-73
2022/07/23 00:09:58;;;;;;;2.53;2.10;;;18.90;99.90;;;;;;5010913;28;20076;-73
2022/07/23 00:12:24;;;;;;;8.55;2.28;;;18.80;99.90;;;;;;5012118;28;20163;-73
2022/07/23 00:14:49;;;;;;;2.67;1.50;;;18.80;99.90;;;;;;5016248;28;20024;-73
2022/07/23 00:17:15;;;;;;;2.53;1.85;;;18.80;99.90;;;;;;5013658;28;20129;-73
2022/07/23 00:19:40;;;;;;;3.47;2.53;;;18.80;99.90;;;;;;5009179;28;20076;-74
2022/07/23 00:22:06;;;;;;;2.83;2.22;;;18.80;99.90;;;;;;5014239;28;20026;-74
2022/07/23 00:24:31;;;;;;;2.67;2.13;;;18.80;99.90;;;;;;5018392;28;20021;-74
2022/07/23 00:26:57;;;;;;;3.63;1.80;;;18.80;99.90;;;;;;5015140;28;20021;-72
2022/07/23 00:29:22;;;;;;;1.63;1.52;;;18.80;99.90;;;;;;5016409;28;20030;-74
2022/07/23 00:31:48;;;;;;;1.65;1.45;;;18.80;99.90;;;;;;5020787;28;20060;-73
2022/07/23 00:34:13;;;;;;;2.22;1.92;;;18.80;99.90;;;;;;5011428;28;20357;-73
2022/07/23 00:36:39;;;;;;;2.15;1.77;;;18.80;99.90;;;;;;5015604;28;20026;-74
2022/07/23 00:39:05;;;;;;;2.30;2.10;;;18.80;99.90;;;;;;5012815;28;20392;-74
2022/07/23 00:41:30;;;;;;;2.67;1.67;;;18.80;99.90;;;;;;5012820;28;21367;-73
2022/07/23 00:44:13;;;;;;;3.47;1.70;;;18.80;99.90;;;;;;5014345;28;20030;-73
2022/07/23 00:46:45;;;;;;;2.60;1.80;;;18.80;99.90;;;;;;5018142;28;20642;-73
2022/07/23 00:49:11;;;;;;;2.70;1.77;;;18.60;99.90;;;;;;5014186;28;20132;-74
2022/07/23 00:51:36;;;;;;;2.20;1.55;;;18.60;99.90;;;;;;5013741;28;20101;-74
2022/07/23 00:54:02;;;;;;;2.67;1.80;;;18.50;99.90;;;;;;5010502;28;20041;-74
2022/07/23 00:56:27;;;;;;;3.35;1.88;;;18.60;99.90;;;;;;5013893;28;20057;-74
2022/07/23 00:58:53;;;;;;;1.70;1.60;;;18.60;99.90;;;;;;5014962;28;20112;-74
2022/07/23 01:01:18;;;;;;;3.05;1.85;;;18.50;99.90;;;;;;5012186;28;20029;-75
2022/07/23 01:03:44;;;;;;;2.40;1.90;;;18.40;99.90;;;;;;5011606;28;20125;-73
2022/07/23 01:06:09;;;;;;;2.10;1.90;;;18.40;99.90;;;;;;5010712;28;20053;-74
2022/07/23 01:08:35;;;;;;;3.00;1.60;;;18.50;99.90;;;;;;5008762;28;20541;-74
2022/07/23 01:11:01;;;;;;;2.28;1.70;;;18.40;99.90;;;;;;5010120;28;20034;-73
2022/07/23 01:13:26;;;;;;;3.00;2.08;;;18.40;99.90;;;;;;5009782;28;20045;-73
2022/07/23 01:15:51;;;;;;;2.63;1.80;;;18.40;99.90;;;;;;5012134;28;20026;-74
2022/07/23 01:18:17;;;;;;;2.60;1.92;;;18.30;99.90;;;;;;5010031;28;20057;-73
2022/07/23 01:20:42;;;;;;;4.05;2.45;;;18.30;99.90;;;;;;5010893;28;20038;-74
2022/07/23 01:23:08;;;;;;;1.50;1.35;;;18.30;99.90;;;;;;5006494;28;20029;-73
2022/07/23 01:25:33;;;;;;;4.78;2.35;;;18.30;99.90;;;;;;5003976;28;20049;-73
2022/07/23 01:27:59;;;;;;;3.08;2.22;;;18.20;99.90;;;;;;5009601;28;20079;-74
2022/07/23 01:30:25;;;;;;;2.90;2.03;;;18.10;99.90;;;;;;5012361;28;20105;-74
2022/07/23 01:32:50;;;;;;;3.10;2.17;;;18.00;99.90;;;;;;5009672;28;20029;-73
2022/07/23 01:35:16;;;;;;;2.50;1.70;;;17.90;99.90;;;;;;5009043;28;20017;-74
2022/07/23 01:37:41;;;;;;;2.80;2.13;;;17.80;99.90;;;;;;5009702;28;20045;-73
2022/07/23 01:40:07;;;;;;;2.20;1.70;;;17.80;99.90;;;;;;5008895;28;20029;-73
2022/07/23 01:42:33;;;;;;;2.78;1.42;;;17.70;99.90;;;;;;5010118;28;20034;-73
2022/07/23 01:44:58;;;;;;;4.95;1.73;;;17.70;99.90;;;;;;5007742;28;20026;-73
2022/07/23 01:47:24;;;;;;;2.35;1.77;;;17.60;99.90;;;;;;5008045;28;20057;-73
2022/07/23 01:49:49;;;;;;;2.65;1.85;;;17.60;99.90;;;;;;5011179;28;20408;-73
2022/07/23 01:52:16;;;;;;;2.38;1.65;;;17.50;99.90;;;;;;5006799;28;20025;-72
2022/07/23 01:54:41;;;;;;;1.80;1.50;;;17.50;99.90;;;;;;5005450;28;20704;-74
2022/07/23 01:57:07;;;;;;;2.30;1.50;;;17.50;99.90;;;;;;5017364;28;20140;-73
2022/07/23 01:59:34;;;;;;;5.70;2.13;;;17.50;99.90;;;;;;5012237;28;20036;-72
2022/07/23 02:01:59;;;;;;;3.90;1.55;;;17.50;99.90;;;;;;5008637;28;20100;-73
2022/07/23 02:04:25;;;;;;;3.03;1.95;;;17.50;99.90;;;;;;5009124;28;20080;-73
2022/07/23 02:06:51;;;;;;;2.80;1.65;;;17.60;99.90;;;;;;5000976;28;20061;-73
2022/07/23 02:09:17;;;;;;;2.70;1.95;;;17.60;99.90;;;;;;5010170;28;20110;-73
2022/07/23 02:11:43;;;;;;;2.10;1.83;;;17.70;99.90;;;;;;5007963;28;20081;-73
2022/07/23 02:14:09;;;;;;;2.00;1.52;;;17.70;99.90;;;;;;5008182;28;20388;-71
2022/07/23 02:16:34;;;;;;;3.03;1.92;;;17.80;99.90;;;;;;5009842;28;20050;-72
2022/07/23 02:19:00;;;;;;;3.67;1.65;;;17.80;99.90;;;;;;5008961;28;20034;-72
2022/07/23 02:21:26;;;;;;;2.25;2.05;;;17.90;99.90;;;;;;5010553;28;20030;-73
2022/07/23 02:23:51;;;;;;;3.47;2.03;;;17.90;99.90;;;;;;5008917;28;20045;-72
2022/07/23 02:26:17;;;;;;;2.83;1.70;;;17.90;99.90;;;;;;5007423;28;20113;-73
2022/07/23 02:28:42;;;;;;;4.38;1.80;;;17.90;99.90;;;;;;5008843;28;20040;-73
2022/07/23 02:31:08;;;;;;;1.70;1.50;;;18.00;99.90;;;;;;5009494;28;20133;-73
2022/07/23 02:33:33;;;;;;;1.60;1.50;;;18.00;99.90;;;;;;5008794;28;20025;-73
2022/07/23 02:35:59;;;;;;;5.30;1.90;;;18.00;99.90;;;;;;5010140;28;20034;-73
2022/07/23 02:38:24;;;;;;;2.70;1.92;;;17.90;99.90;;;;;;5008718;28;20026;-73
2022/07/23 02:40:50;;;;;;;2.10;1.75;;;18.00;99.90;;;;;;5008706;28;20026;-73
2022/07/23 02:43:15;;;;;;;5.13;1.73;;;17.90;99.90;;;;;;5000687;28;20064;-73
2022/07/23 02:45:41;;;;;;;2.08;1.50;;;17.90;99.90;;;;;;5012437;28;20051;-73
2022/07/23 02:48:06;;;;;;;3.25;2.05;;;17.80;99.90;;;;;;5006541;28;20092;-73
2022/07/23 02:50:32;;;;;;;2.72;1.98;;;17.80;99.90;;;;;;5010757;28;20022;-73
2022/07/23 02:52:57;;;;;;;2.15;1.80;;;17.70;99.90;;;;;;5008763;28;20022;-72
2022/07/23 02:55:23;;;;;;;2.72;1.77;;;17.70;99.90;;;;;;5008951;28;20369;-73
2022/07/23 02:57:48;;;;;;;4.45;2.17;;;17.70;99.90;;;;;;5011634;28;20057;-73
2022/07/23 03:00:14;;;;;;;3.78;1.60;;;17.60;99.90;;;;;;5008538;28;20128;-73
2022/07/23 03:02:39;;;;;;;2.15;1.52;;;17.50;99.90;;;;;;5006753;28;20018;-73
2022/07/23 03:05:06;;;;;;;2.05;1.65;;;17.50;99.90;;;;;;5010196;28;20804;-73
2022/07/23 03:07:31;;;;;;;2.35;1.45;;;17.50;99.90;;;;;;5008576;28;20080;-73
2022/07/23 03:09:57;;;;;;;2.90;1.75;;;17.50;99.90;;;;;;5012576;28;20017;-73
2022/07/23 03:12:23;;;;;;;1.58;1.48;;;17.50;99.90;;;;;;5007543;28;20026;-73
2022/07/23 03:14:48;;;;;;;2.45;1.40;;;17.50;99.90;;;;;;5009551;28;20116;-73
2022/07/23 03:17:14;;;;;;;2.47;1.60;;;17.50;99.90;;;;;;5007852;28;20084;-74
2022/07/23 03:19:39;;;;;;;2.13;1.55;;;17.50;99.90;;;;;;5006219;28;20030;-73
2022/07/23 03:22:05;;;;;;;2.65;1.88;;;17.40;99.90;;;;;;5007389;28;20466;-73
2022/07/23 03:27:15;;;;;;;2.15;1.30;;;17.50;99.90;;;;;;5011055;28;20125;-73
2022/07/23 03:29:40;;;;;;;3.50;1.83;;;17.50;99.90;;;;;;5007833;28;20116;-73
2022/07/23 03:32:06;;;;;;;3.00;1.95;;;17.50;99.90;;;;;;5007422;28;20523;-73
2022/07/23 03:34:32;;;;;;;2.20;1.42;;;17.60;99.90;;;;;;5007730;28;20026;-74
2022/07/23 03:36:57;;;;;;;1.30;1.23;;;17.50;99.90;;;;;;5002737;28;20053;-73
2022/07/23 03:39:23;;;;;;;3.10;1.42;;;17.50;99.90;;;;;;5007099;28;20036;-74
2022/07/23 03:41:48;;;;;;;1.33;1.15;;;17.40;99.90;;;;;;5007613;28;20022;-74
2022/07/23 03:44:13;;;;;;;5.85;1.83;;;17.50;99.90;;;;;;5010923;28;20026;-74
2022/07/23 03:46:39;;;;;;;2.85;1.40;;;17.50;99.90;;;;;;5004996;28;20546;-73
2022/07/23 03:49:04;;;;;;;1.58;1.25;;;17.50;99.90;;;;;;5009367;28;20018;-74
2022/07/23 03:51:30;;;;;;;2.78;1.25;;;17.60;99.90;;;;;;5009440;28;20469;-74
2022/07/23 03:53:55;;;;;;;1.65;0.98;;;17.60;99.90;;;;;;5008482;28;20128;-74
2022/07/23 03:56:21;;;;;;;1.42;1.33;;;17.60;99.90;;;;;;5017134;28;20042;-73
2022/07/23 03:58:47;;;;;;;1.40;1.15;;;17.60;99.90;;;;;;5007084;28;20026;-74
2022/07/23 04:01:13;;;;;;;1.38;1.05;;;17.70;99.90;;;;;;5007875;28;20495;-74
2022/07/23 04:03:38;;;;;;;1.40;1.30;;;17.80;99.90;;;;;;5009462;28;20952;-73
2022/07/23 04:06:04;;;;;;;2.03;1.52;;;17.80;99.90;;;;;;5008839;28;20404;-74
2022/07/23 04:08:30;;;;;;;1.45;1.35;;;17.80;99.90;;;;;;5010231;28;20084;-73
2022/07/23 04:10:55;;;;;;;1.05;0.95;;;17.70;99.90;;;;;;5006309;28;20445;-72
2022/07/23 04:13:21;;;;;;;2.03;0.90;;;17.70;99.90;;;;;;5008522;28;20025;-73
2022/07/23 04:15:46;;;;;;;2.35;1.00;;;17.70;99.90;;;;;;5008938;28;20029;-73
2022/07/23 04:18:12;;;;;;;1.48;1.10;;;17.70;99.90;;;;;;5006969;28;20057;-73
2022/07/23 04:20:39;;;;;;;0.88;0.88;;;17.70;99.90;;;;;;5009238;28;20053;-73
2022/07/23 04:23:04;;;;;;;1.42;0.98;;;17.70;99.90;;;;;;5008408;28;20049;-73
2022/07/23 04:25:29;;;;;;;1.67;0.93;;;17.70;99.90;;;;;;5007667;28;20508;-73
2022/07/23 04:27:55;;;;;;;0.90;0.85;;;17.70;99.90;;;;;;5005298;28;20112;-73
2022/07/23 04:30:20;;;;;;;1.10;0.80;;;17.70;99.90;;;;;;5008306;28;20032;-72
2022/07/23 04:32:46;;;;;;;2.55;1.08;;;17.60;99.90;;;;;;5007547;28;20038;-72
2022/07/23 04:35:11;;;;;;;2.00;1.35;;;17.60;99.90;;;;;;5007089;28;20034;-72
2022/07/23 04:37:37;;;;;;;2.05;0.77;;;17.60;99.90;;;;;;5008911;28;20484;-73
2022/07/23 04:40:03;;;;;;;2.88;1.13;;;17.50;99.90;;;;;;5009569;28;20033;-72
2022/07/23 04:42:28;;;;;;;1.27;1.17;;;17.40;99.90;;;;;;5010817;28;20041;-73
2022/07/23 04:44:54;;;;;;;2.72;2.00;;;17.30;99.90;;;;;;5006353;28;20045;-72
2022/07/23 04:47:19;;;;;;;1.55;0.90;;;17.40;99.90;;;;;;5007445;28;20025;-73
2022/07/23 04:49:45;;;;;;;2.45;1.27;;;17.30;99.90;;;;;;5009542;28;20026;-72
2022/07/23 04:52:10;;;;;;;1.40;1.10;;;17.30;99.90;;;;;;5012030;28;20033;-73
2022/07/23 04:54:36;;;;;;;5.28;1.90;;;17.30;99.90;;;;;;5011265;28;20045;-73
2022/07/23 04:57:01;;;;;;;2.42;1.08;;;17.30;99.90;;;;;;5009954;28;20036;-73
2022/07/23 04:59:27;;;;;;;1.38;1.13;;;17.20;99.90;;;;;;5008280;28;20421;-74
2022/07/23 05:01:52;;;;;;;2.75;1.30;;;17.20;99.90;;;;;;5009039;28;20038;-73
2022/07/23 05:04:17;;;;;;;1.20;0.98;;;17.10;99.90;;;;;;5002134;28;20569;-73
2022/07/23 05:06:43;;;;;;;2.65;1.67;;;17.10;99.90;;;;;;4999552;28;20028;-72
2022/07/23 05:09:08;;;;;;;1.65;1.10;;;17.10;99.90;;;;;;5001878;28;20041;-72
2022/07/23 05:11:34;;;;;;;0.80;0.80;;;17.00;99.90;;;;;;5001999;28;20033;-72
2022/07/23 05:13:59;;;;;;;1.33;1.23;;;16.60;99.90;;;;;;5001933;28;20484;-72
2022/07/23 05:16:25;;;;;;;1.42;1.13;;;16.40;99.90;;;;;;5002883;28;20069;-72
2022/07/23 05:18:50;;;;;;;1.65;1.08;;;16.40;99.90;;;;;;5000097;28;20029;-72
2022/07/23 05:21:16;;;;;;;1.30;1.17;;;16.50;99.90;;;;;;5004523;28;20053;-73
2022/07/23 05:23:41;;;;;;;1.73;1.00;;;16.70;99.90;;;;;;5002186;28;20116;-72
2022/07/23 05:26:06;;;;;;;1.25;1.00;;;16.90;99.90;;;;;;5001966;28;20021;-73
2022/07/23 05:28:32;;;;;;;1.25;1.15;;;17.00;99.90;;;;;;5001015;28;20022;-72
2022/07/23 05:30:57;;;;;;;0.57;0.57;;;17.10;99.90;;;;;;5002716;28;20062;-72
2022/07/23 05:33:23;;;;;;;0.68;0.68;;;17.10;99.90;;;;;;5001538;28;20030;-72
2022/07/23 05:35:48;;;;;;;1.65;1.38;;;17.20;99.90;;;;;;5001848;28;20026;-72
2022/07/23 05:38:14;;;;;;;2.85;1.20;;;17.30;99.90;;;;;;5001834;28;20057;-72
2022/07/23 05:40:39;;;;;;;1.08;1.02;;;17.30;99.90;;;;;;5003142;28;20025;-73
2022/07/23 05:43:05;;;;;;;0.70;0.70;;;17.40;99.90;;;;;;5000990;28;20492;-72
2022/07/23 05:45:30;;;;;;;1.45;0.80;;;17.40;99.90;;;;;;5001343;28;20460;-73
2022/07/23 05:47:56;;;;;;;0.68;0.68;;;17.30;99.90;;;;;;5001300;28;20022;-73
2022/07/23 05:50:21;;;;;;;1.55;0.90;;;17.00;99.90;;;;;;5002139;28;20030;-73
2022/07/23 05:52:47;;;;;;;1.23;0.80;;;16.90;99.90;;;;;;5000251;28;20072;-73
2022/07/23 05:55:12;;;;;;;1.90;0.75;;;17.10;99.90;;;;;;5001437;28;20025;-73
2022/07/23 05:57:39;;;;;;;1.15;1.00;;;17.20;99.90;;;;;;5002054;28;20032;-73
2022/07/23 06:00:08;;;;;;;0.95;0.85;;;17.20;99.90;;;;;;5001475;28;20038;-73
2022/07/23 06:02:34;;;;;;;1.10;1.00;;;17.20;99.90;;;;;;5001009;28;20037;-73
2022/07/23 06:04:59;;;;;;;3.30;0.90;;;17.20;99.90;;;;;;5001727;28;20388;-73
2022/07/23 06:07:25;;;;;;;2.15;1.17;;;17.20;99.90;;;;;;5000970;28;20034;-73
2022/07/23 06:09:50;;;;;;;1.35;1.00;;;17.20;99.90;;;;;;5001345;28;20015;-74
2022/07/23 06:12:16;;;;;;;1.77;1.08;;;17.10;99.90;;;;;;5000527;28;20067;-73
2022/07/23 06:14:42;;;;;;;1.90;1.30;;;17.00;99.90;;;;;;5001827;28;20030;-72
2022/07/23 06:17:08;;;;;;;8.90;1.02;;;17.00;99.90;;;;;;5000374;28;20049;-72
2022/07/23 06:19:34;;;;;;;1.00;0.90;;;17.10;99.90;;;;;;4999904;28;20077;-73
2022/07/23 06:21:59;;;;;;;3.42;1.33;;;17.10;99.90;;;;;;5001224;28;20072;-73
2022/07/23 06:24:25;;;;;;;1.40;1.10;;;17.20;99.90;;;;;;5000794;28;20511;-74
2022/07/23 06:26:50;;;;;;;1.20;1.10;;;17.20;99.90;;;;;;4998964;28;20026;-74
2022/07/23 06:29:16;;;;;;;1.25;0.95;;;17.40;99.90;;;;;;5001407;28;20018;-74
2022/07/23 06:31:41;;;;;;;1.17;1.08;;;17.50;99.90;;;;;;5000886;28;21439;-73
2022/07/23 06:34:07;;;;;;;1.13;0.80;;;17.50;99.90;;;;;;5000346;28;20033;-73
2022/07/23 06:36:32;;;;;;;1.73;1.00;;;17.50;99.90;;;;;;5002557;28;20084;-74
2022/07/23 06:38:57;;;;;;;1.30;1.00;;;17.50;99.90;;;;;;5014774;28;20071;-73
2022/07/23 06:41:23;;;;;;;1.23;1.08;;;17.50;99.90;;;;;;5004328;28;20087;-73
2022/07/23 06:43:49;;;;;;;2.13;1.20;;;17.30;99.90;;;;;;5006550;28;20412;-73
2022/07/23 06:46:14;;;;;;;1.30;0.95;;;17.30;99.90;;;;;;5007028;28;20481;-73
2022/07/23 06:48:40;;;;;;;2.13;1.15;;;17.00;99.90;;;;;;5007439;28;20026;-73
2022/07/23 06:51:05;;;;;;;2.50;1.27;;;16.90;99.90;;;;;;5009170;28;20032;-73
2022/07/23 06:53:31;;;;;;;1.88;1.27;;;17.10;99.90;;;;;;5008344;28;20037;-73
2022/07/23 06:55:56;;;;;;;4.95;1.08;;;17.30;99.90;;;;;;5008007;28;20072;-74
2022/07/23 06:58:22;;;;;;;0.90;0.90;;;17.40;99.90;;;;;;5007823;28;20030;-73
2022/07/23 07:00:47;;;;;;;0.80;0.80;;;17.50;99.90;;;;;;5009078;28;20099;-73
2022/07/23 07:03:13;;;;;;;1.08;0.95;;;17.60;99.90;;;;;;5006229;28;20026;-73
2022/07/23 07:05:40;;;;;;;2.50;2.00;;;17.60;99.90;;;;;;5008577;28;20030;-73
2022/07/23 07:08:05;;;;;;;2.75;1.00;;;17.70;99.90;;;;;;5005827;28;20030;-73
2022/07/23 07:10:31;;;;;;;5.38;1.70;;;17.70;99.90;;;;;;5008656;28;20029;-73
2022/07/23 07:12:57;;;;;;;1.25;1.13;;;17.80;99.90;;;;;;5008731;28;20495;-75
2022/07/23 07:15:22;;;;;;;4.22;1.63;;;17.90;99.90;;;;;;5006260;28;20160;-74
2022/07/23 07:17:48;;;;;;;1.52;1.40;;;17.90;99.90;;;;;;5007482;28;20061;-72
2022/07/23 07:20:13;;;;;;;0.95;0.90;;;18.10;99.90;;;;;;5008678;28;20030;-73
2022/07/23 07:22:39;;;;;;;1.25;1.00;;;18.20;99.90;;;;;;5006554;28;20492;-73
2022/07/23 07:25:05;;;;;;;0.65;0.65;;;18.30;99.90;;;;;;5003878;28;20029;-73
2022/07/23 07:27:31;;;;;;;1.10;1.00;;;18.30;99.90;;;;;;5007101;28;20192;-72
2022/07/23 07:29:56;;;;;;;1.88;1.60;;;18.30;99.90;;;;;;5008046;28;20129;-71
2022/07/23 07:32:22;;;;;;;1.63;1.13;;;18.40;99.90;;;;;;5007986;28;20048;-72
2022/07/23 07:34:48;;;;;;;1.10;1.00;;;18.40;99.90;;;;;;5010664;28;20056;-70
2022/07/23 07:37:13;;;;;;;2.38;1.08;;;18.50;99.90;;;;;;5003740;28;20084;-70
2022/07/23 07:39:44;;;;;;;1.35;0.98;;;18.60;99.90;;;;;;5003224;28;20032;-72
2022/07/23 07:42:10;;;;;;;1.58;0.98;;;18.40;99.90;;;;;;5003720;28;20018;-74
2022/07/23 07:44:35;;;;;;;1.20;1.10;;;18.60;99.90;;;;;;5007018;28;20029;-71
2022/07/23 07:47:01;;;;;;;1.23;1.13;;;18.50;99.90;;;;;;5007007;28;20091;-71
2022/07/23 07:49:26;;;;;;;1.05;0.90;;;18.40;99.90;;;;;;5010335;28;20544;-72
2022/07/23 07:51:52;;;;;;;1.02;1.02;;;18.30;99.90;;;;;;5004643;28;20123;-71
2022/07/23 07:54:17;;;;;;;4.38;0.90;;;18.40;99.90;;;;;;5007083;28;20026;-70
2022/07/23 07:56:43;;;;;;;1.25;0.90;;;18.40;99.90;;;;;;5002382;28;20044;-70
2022/07/23 07:59:08;;;;;;;0.80;0.80;;;18.50;99.90;;;;;;5003666;28;20485;-71
2022/07/23 08:01:34;;;;;;;1.65;0.88;;;18.70;99.90;;;;;;5002947;28;20044;-71
2022/07/23 08:03:59;;;;;;;1.85;0.95;;;18.60;99.90;;;;;;5006140;28;20053;-72
2022/07/23 08:06:25;;;;;;;4.70;1.00;;;18.20;99.90;;;;;;5006703;28;20376;-71
2022/07/23 08:08:50;;;;;;;0.85;0.70;;;18.10;99.90;;;;;;5003025;28;20026;-71
2022/07/23 08:11:16;;;;;;;1.33;1.10;;;18.20;99.90;;;;;;5008077;28;20084;-72
2022/07/23 08:13:44;;;;;;;4.35;1.33;;;18.20;99.90;;;;;;5010042;28;20049;-72
2022/07/23 08:16:09;;;;;;;0.75;0.75;;;18.40;99.90;;;;;;5012315;28;20087;-72
2022/07/23 08:18:35;;;;;;;1.23;1.00;;;18.40;99.90;;;;;;5004079;28;20042;-73
2022/07/23 08:21:00;;;;;;;4.40;1.25;;;18.30;99.90;;;;;;5011619;28;20555;-72
2022/07/23 08:23:27;;;;;;;2.83;1.25;;;18.30;99.90;;;;;;5011442;28;20045;-72
2022/07/23 08:25:52;;;;;;;1.55;1.35;;;18.30;99.90;;;;;;5003055;28;20034;-72
2022/07/23 08:28:18;;;;;;;0.93;0.80;;;18.40;99.90;;;;;;5007585;28;20026;-72
2022/07/23 08:30:44;;;;;;;1.05;0.95;;;18.30;99.90;;;;;;5006783;28;20048;-74
2022/07/23 08:33:13;;;;;;;0.80;0.80;;;18.50;99.90;;;;;;5008198;28;20018;-73
2022/07/23 08:35:50;;;;;;;1.08;0.90;;;18.70;99.90;;;;;;5008049;28;20033;-75
2022/07/23 08:38:17;;;;;;;1.98;1.52;;;18.90;99.90;;;;;;5008938;28;20029;-75
2022/07/23 08:40:48;;;;;;;0.90;0.80;;;19.30;99.90;;;;;;5001579;28;20038;-74
2022/07/23 08:43:16;;;;;;;1.65;1.23;;;19.40;99.90;;;;;;5010440;28;20037;-74
2022/07/23 08:45:46;;;;;;;1.20;1.08;;;19.60;99.90;;;;;;5008761;28;20041;-75
2022/07/23 08:48:14;;;;;;;1.10;1.00;;;19.60;99.90;;;;;;5005615;28;20058;-74
2022/07/23 08:50:50;;;;;;;1.70;0.90;;;19.70;99.90;;;;;;5011447;28;20110;-74
2022/07/23 08:53:18;;;;;;;3.00;1.20;;;19.80;99.90;;;;;;5010204;28;20030;-74
2022/07/23 08:55:45;;;;;;;1.27;0.93;;;20.10;99.90;;;;;;5006754;28;20061;-77
2022/07/23 08:58:12;;;;;;;1.67;1.00;;;20.10;99.90;;;;;;5010337;28;20037;-76
2022/07/23 09:00:37;;;;;;;1.92;1.13;;;20.20;99.90;;;;;;5006563;28;20032;-73
2022/07/23 09:03:03;;;;;;;1.48;1.23;;;20.30;99.90;;;;;;5004767;28;20049;-75
2022/07/23 09:05:28;;;;;;;6.00;1.10;;;20.40;99.90;;;;;;5007637;28;20034;-73
2022/07/23 09:08:14;;;;;;;1.48;1.38;;;20.70;99.90;;;;;;5003802;28;20538;-73
2022/07/23 09:10:50;;;;;;;1.38;1.15;;;20.60;99.90;;;;;;5006439;28;20366;-75
2022/07/23 09:13:30;;;;;;;2.97;1.60;;;20.80;99.90;;;;;;5007667;28;20053;-73
2022/07/23 09:16:04;;;;;;;2.40;1.10;;;20.90;99.90;;;;;;5006191;28;20428;-74
2022/07/23 09:18:45;;;;;;;2.33;1.35;;;20.90;99.90;;;;;;5009823;28;20045;-74
2022/07/23 09:21:14;;;;;;;1.63;1.23;;;21.10;99.90;;;;;;5010757;28;20447;-75
2022/07/23 09:23:42;;;;;;;1.30;1.20;;;21.00;99.90;;;;;;5004450;28;20033;-73
2022/07/23 09:26:32;;;;;;;1.45;1.00;;;21.30;99.90;;;;;;4999168;28;20041;-74
2022/07/23 09:28:59;;;;;;;1.40;1.20;;;21.20;98.80;;;;;;5005736;28;20860;-73
2022/07/23 09:31:30;;;;;;;1.20;1.10;;;21.20;98.30;;;;;;5002659;28;20436;-74
2022/07/23 09:34:07;;;;;;;1.30;1.05;;;21.40;99.90;;;;;;5010021;28;20488;-74
2022/07/23 09:36:32;;;;;;;1.15;1.05;;;21.80;99.20;;;;;;5008420;28;20069;-74
2022/07/23 09:38:58;;;;;;;0.80;0.80;;;21.80;99.20;;;;;;5008196;28;20042;-74
2022/07/23 09:41:24;;;;;;;1.52;1.02;;;21.50;99.90;;;;;;5009962;28;20025;-74
2022/07/23 09:43:55;;;;;;;2.88;1.60;;;21.60;98.00;;;;;;5009400;28;20018;-74
2022/07/23 09:46:27;;;;;;;;;;;21.70;96.50;;;;;;5010455;28;20072;-74
2022/07/23 09:48:56;;;;;;;1.83;1.13;;;21.40;96.70;;;;;;5007791;28;19921;-74
2022/07/23 09:51:31;;;;;;;1.52;1.10;;;21.60;96.20;;;;;;5007561;28;20022;-74
2022/07/23 09:53:56;;;;;;;1.95;1.05;;;21.90;95.50;;;;;;5002807;28;20021;-76
2022/07/23 09:56:23;;;;;;;1.27;1.17;;;22.00;94.20;;;;;;5006354;28;20040;-76
2022/07/23 09:58:52;;;;;;;1.10;1.00;;;22.10;96.10;;;;;;5006036;28;20034;-76
2022/07/23 10:01:18;;;;;;;1.23;1.10;;;22.20;96.00;;;;;;5011148;28;20041;-77
2022/07/23 10:03:45;;;;;;;1.13;1.02;;;22.10;95.80;;;;;;5008697;28;20040;-78
2022/07/23 10:06:13;;;;;;;2.35;1.33;;;21.80;95.00;;;;;;5011105;28;20523;-77
2022/07/23 10:08:41;;;;;;;3.15;1.02;;;21.90;93.00;;;;;;5009355;28;20034;-77
2022/07/23 10:11:09;;;;;;;3.33;1.20;;;22.10;93.00;;;;;;5010865;28;20425;-77
2022/07/23 10:13:50;;;;;;;1.10;1.00;;;22.00;93.50;;;;;;5014332;28;20029;-77
2022/07/23 10:16:16;;;;;;;1.02;0.93;;;21.80;92.00;;;;;;5002602;28;20092;-78
2022/07/23 10:18:41;;;;;;;1.52;1.02;;;21.70;91.20;;;;;;5007984;28;20424;-78
2022/07/23 10:21:08;;;;;;;1.00;0.98;;;21.80;92.40;;;;;;5008366;28;20439;-77
2022/07/23 10:24:27;;;;;;;2.22;1.10;;;22.10;92.90;;;;;;5009323;28;20084;-79
2022/07/23 10:27:01;;;;;;;2.03;1.10;;;21.90;90.80;;;;;;4988131;28;20571;-78
2022/07/23 10:29:42;;;;;;;3.35;1.10;;;21.50;91.50;;;;;;5002971;28;20022;-75
2022/07/23 10:32:31;;;;;;;1.75;1.23;;;21.90;92.20;;;;;;5010715;28;20076;-75
2022/07/23 10:35:21;;;;;;;1.25;0.98;;;22.20;91.40;;;;;;5009422;28;20040;-75
2022/07/23 10:37:50;;;;;;;1.20;1.10;;;22.20;93.00;;;;;;5007229;28;20467;-75
2022/07/23 10:40:22;;;;;;;1.35;1.13;;;22.00;90.70;;;;;;4998529;28;20039;-76
2022/07/23 10:42:51;;;;;;;1.02;1.02;;;22.30;93.20;;;;;;5009145;28;20496;-75
2022/07/23 10:45:22;;;;;;;2.83;1.63;;;22.60;93.80;;;;;;5010093;28;20034;-76
2022/07/23 10:47:48;;;;;;;;;;;22.90;92.00;;;;;;5009062;28;20504;-75
2022/07/23 10:50:23;;;;;;;6.88;1.50;;;23.10;90.10;;;;;;5010318;28;19901;-75
2022/07/23 10:53:08;;;;;;;0.90;0.90;;;23.10;89.90;;;;;;5009446;28;20021;-75
2022/07/23 10:55:33;;;;;;;1.92;1.30;;;23.20;87.40;;;;;;5002774;28;20029;-74
2022/07/23 10:57:59;;;;;;;1.30;1.20;;;23.20;87.60;;;;;;5006625;28;20022;-75
2022/07/23 11:00:32;;;;;;;1.75;1.27;;;23.40;82.60;;;;;;5007394;28;20048;-75
2022/07/23 11:03:06;;;;;;;1.30;1.20;;;23.90;85.80;;;;;;5009990;28;20022;-75
2022/07/23 11:05:44;;;;;;;1.55;1.27;;;24.40;85.10;;;;;;5009684;28;20026;-75
2022/07/23 11:08:19;;;;;;;1.60;1.50;;;24.50;82.80;;;;;;5009719;28;20041;-76
2022/07/23 11:10:51;;;;;;;1.63;1.20;;;24.50;79.80;;;;;;5006811;28;20034;-75
2022/07/23 11:13:44;;;;;;;5.05;1.63;;;24.90;81.50;;;;;;5010202;28;20072;-75
2022/07/23 11:16:16;;;;;;;1.38;1.27;;;24.80;79.10;;;;;;5001574;28;20048;-75
2022/07/23 11:18:44;;;;;;;1.10;1.00;;;24.70;77.10;;;;;;5017787;28;20044;-75
2022/07/23 11:21:23;;;;;;;2.15;1.00;;;24.90;80.50;;;;;;5006857;28;20045;-75
2022/07/23 11:24:01;;;;;;;2.03;1.73;;;25.10;77.20;;;;;;5009038;28;20052;-75
2022/07/23 11:26:46;;;;;;;1.35;1.25;;;25.30;77.00;;;;;;5009657;28;20488;-76
2022/07/23 11:29:37;;;;;;;1.42;0.90;;;25.70;74.10;;;;;;5008478;28;20044;-76
2022/07/23 11:32:26;;;;;;;2.38;1.42;;;26.10;79.10;;;;;;5007611;28;20029;-76
2022/07/23 11:34:53;;;;;;;2.08;1.20;;;26.80;71.60;;;;;;5002664;28;20123;-76
2022/07/23 11:37:29;;;;;;;1.95;1.23;;;26.90;71.20;;;;;;5008496;28;20029;-76
2022/07/23 11:39:55;;;;;;;1.02;1.00;;;26.40;73.70;;;;;;5009153;28;20025;-76
2022/07/23 11:42:21;;;;;;;2.28;1.55;;;26.40;74.60;;;;;;5008812;28;20112;-76
2022/07/23 11:44:47;;;;;;;1.88;1.60;;;26.20;72.20;;;;;;5009309;28;20488;-76
2022/07/23 11:47:13;;;;;;;3.42;1.63;;;26.40;73.80;;;;;;5007920;28;20474;-77
2022/07/23 11:49:39;;;;;;;1.35;1.15;;;26.80;74.60;;;;;;5006435;28;20033;-76
2022/07/23 11:52:13;;;;;;;4.80;1.60;;;27.40;71.70;;;;;;5008144;28;20034;-76
2022/07/23 11:54:54;;;;;;;2.00;1.20;;;27.70;70.10;;;;;;5008701;28;20459;-76
2022/07/23 11:57:23;;;;;;;;;;;28.00;64.80;;;;;;5005153;28;20496;-75
2022/07/23 11:59:54;;;;;;;1.70;1.60;;;27.50;62.70;;;;;;5007557;28;19909;-76
2022/07/23 12:02:21;;;;;;;1.50;1.40;;;27.20;60.70;;;;;;5006732;28;20425;-76
2022/07/23 12:04:49;;;;;;;1.90;1.33;;;26.60;64.00;;;;;;5008443;28;20405;-77
2022/07/23 12:07:29;;;;;;;1.88;1.60;;;26.40;63.00;;;;;;5011128;28;20036;-76
2022/07/23 12:09:56;;;;;;;1.33;1.23;;;26.00;62.00;;;;;;5004524;28;20030;-76
2022/07/23 12:12:44;;;;;;;1.92;1.55;;;26.10;65.00;;;;;;5003833;28;20496;-75
2022/07/23 12:15:13;;;;;;;1.30;1.13;;;26.30;64.00;;;;;;5008599;28;20037;-73
2022/07/23 12:17:41;;;;;;;3.13;2.42;;;26.10;64.10;;;;;;5007364;28;20437;-73
2022/07/23 12:20:11;;;;;;;2.30;1.60;;;26.10;63.90;;;;;;5008587;28;20026;-73
2022/07/23 12:22:40;;;;;;;2.25;1.60;;;26.80;62.80;;;;;;5008289;28;20030;-74
2022/07/23 12:25:09;;;;;;;1.65;1.40;;;27.60;65.70;;;;;;5007380;28;20030;-74
2022/07/23 12:27:35;;;;;;;1.48;1.15;;;27.90;59.00;;;;;;5006765;28;20029;-74
2022/07/23 12:30:21;;;;;;;1.40;1.30;;;27.40;59.80;;;;;;5007417;28;20058;-74
2022/07/23 12:32:49;;;;;;;1.27;1.17;;;27.60;63.90;;;;;;5006325;28;20418;-75
2022/07/23 12:35:15;;;;;;;1.88;1.45;;;27.20;59.30;;;;;;5010723;28;20040;-75
2022/07/23 12:37:43;;;;;;;2.10;1.85;;;27.10;62.90;;;;;;5007239;28;20034;-74
2022/07/23 12:40:20;;;;;;;5.15;1.90;;;27.60;60.70;;;;;;5008667;28;20025;-74
2022/07/23 12:42:52;;;;;;;1.65;1.50;;;28.60;57.50;;;;;;5008410;28;20041;-75
2022/07/23 12:45:18;;;;;;;2.97;1.75;;;27.90;57.50;;;;;;5001749;28;20037;-74
2022/07/23 12:47:58;;;;;;;1.30;1.20;;;28.00;57.20;;;;;;5007349;28;20494;-74
2022/07/23 12:50:42;;;;;;;1.40;1.30;;;27.80;60.20;;;;;;5004827;28;20041;-75
2022/07/23 12:53:10;;;;;;;1.42;1.33;;;27.40;59.50;;;;;;5005783;28;20026;-75